sensor_id;sensor_type;location;lat;lon;timestamp;pressure;altitude;pressure_sealevel;temperature;humidity
69302;BME280;56689;47.842;8.974;2024-01-30T00:01:53;98028.53;;;-1.79;100.00
69302;BME280;56689;47.842;8.974;2024-01-30T00:04:19;98049.06;;;-1.66;100.00
69302;BME280;56689;47.842;8.974;2024-01-30T00:06:44;98063.59;;;-1.53;100.00
69302;BME280;56689;47.842;8.974;2024-01-30T00:09:10;98004.28;;;-1.86;100.00
69302;BME280;56689;47.842;8.974;2024-01-30T00:11:36;98050.41;;;-1.59;100.00
69302;BME280;56689;47.842;8.974;2024-01-30T00:14:02;98037.47;;;-1.62;100.00
69302;BME280;56689;47.842;8.974;2024-01-30T00:16:28;98053.66;;;-1.50;100.00
69302;BME280;56689;47.842;8.974;2024-01-30T00:18:53;98032.13;;;-1.66;100.00
69302;BME280;56689;47.842;8.974;2024-01-30T00:21:20;98057.56;;;-1.44;100.00
69302;BME280;56689;47.842;8.974;2024-01-30T00:23:45;98044.75;;;-1.67;100.00
69302;BME280;56689;47.842;8.974;2024-01-30T00:26:11;98015.06;;;-2.00;100.00
69302;BME280;56689;47.842;8.974;2024-01-30T00:28:40;97997.72;;;-2.06;100.00
69302;BME280;56689;47.842;8.974;2024-01-30T00:31:05;98014.84;;;-2.03;100.00
69302;BME280;56689;47.842;8.974;2024-01-30T00:33:31;98059.97;;;-1.79;100.00
69302;BME280;56689;47.842;8.974;2024-01-30T00:35:56;98036.69;;;-1.95;100.00
69302;BME280;56689;47.842;8.974;2024-01-30T00:38:22;98036.97;;;-2.02;100.00
69302;BME280;56689;47.842;8.974;2024-01-30T00:40:48;98045.59;;;-2.00;100.00
69302;BME280;56689;47.842;8.974;2024-01-30T00:43:13;98038.22;;;-1.97;100.00
69302;BME280;56689;47.842;8.974;2024-01-30T00:45:39;98027.94;;;-1.99;100.00
69302;BME280;56689;47.842;8.974;2024-01-30T00:48:04;98011.72;;;-2.11;100.00
69302;BME280;56689;47.842;8.974;2024-01-30T00:50:30;98058.19;;;-1.91;100.00
69302;BME280;56689;47.842;8.974;2024-01-30T00:52:55;98059.06;;;-1.91;100.00
69302;BME280;56689;47.842;8.974;2024-01-30T00:55:21;98074.13;;;-1.82;100.00
69302;BME280;56689;47.842;8.974;2024-01-30T00:57:46;98031.78;;;-2.04;100.00
69302;BME280;56689;47.842;8.974;2024-01-30T01:00:12;98054.31;;;-1.86;100.00
69302;BME280;56689;47.842;8.974;2024-01-30T01:02:41;98052.13;;;-1.82;100.00
69302;BME280;56689;47.842;8.974;2024-01-30T01:05:06;98073.75;;;-1.65;100.00
69302;BME280;56689;47.842;8.974;2024-01-30T01:07:32;98071.88;;;-1.68;100.00
69302;BME280;56689;47.842;8.974;2024-01-30T01:09:57;98063.25;;;-1.70;100.00
69302;BME280;56689;47.842;8.974;2024-01-30T01:12:22;98021.88;;;-1.89;100.00
69302;BME280;56689;47.842;8.974;2024-01-30T01:14:48;98028.84;;;-1.86;100.00
69302;BME280;56689;47.842;8.974;2024-01-30T01:17:13;98084.41;;;-1.59;100.00
69302;BME280;56689;47.842;8.974;2024-01-30T01:19:38;98050.72;;;-1.78;100.00
69302;BME280;56689;47.842;8.974;2024-01-30T01:22:04;98088.22;;;-1.76;100.00
69302;BME280;56689;47.842;8.974;2024-01-30T01:24:32;98079.13;;;-1.84;100.00
69302;BME280;56689;47.842;8.974;2024-01-30T01:26:58;98042.66;;;-2.16;100.00
69302;BME280;56689;47.842;8.974;2024-01-30T01:29:24;98040.72;;;-2.09;100.00
69302;BME280;56689;47.842;8.974;2024-01-30T01:31:56;98073.63;;;-1.78;100.00
69302;BME280;56689;47.842;8.974;2024-01-30T01:34:21;98057.97;;;-1.83;100.00
69302;BME280;56689;47.842;8.974;2024-01-30T01:36:47;98056.31;;;-1.82;100.00
69302;BME280;56689;47.842;8.974;2024-01-30T01:39:12;98065.78;;;-1.70;100.00
69302;BME280;56689;47.842;8.974;2024-01-30T01:41:38;98074.66;;;-1.64;100.00
69302;BME280;56689;47.842;8.974;2024-01-30T01:44:03;98079.97;;;-1.61;100.00
69302;BME280;56689;47.842;8.974;2024-01-30T01:46:32;98084.72;;;-1.66;100.00
69302;BME280;56689;47.842;8.974;2024-01-30T01:48:58;98047.91;;;-1.81;100.00
69302;BME280;56689;47.842;8.974;2024-01-30T01:51:24;98082.06;;;-1.68;100.00
69302;BME280;56689;47.842;8.974;2024-01-30T01:53:53;98023.78;;;-2.08;100.00
69302;BME280;56689;47.842;8.974;2024-01-30T01:56:19;98047.94;;;-2.03;100.00
69302;BME280;56689;47.842;8.974;2024-01-30T01:58:45;98060.47;;;-1.95;100.00
69302;BME280;56689;47.842;8.974;2024-01-30T02:01:12;98057.03;;;-1.95;100.00
69302;BME280;56689;47.842;8.974;2024-01-30T02:03:40;98045.19;;;-1.95;100.00
69302;BME280;56689;47.842;8.974;2024-01-30T02:06:06;98039.22;;;-1.95;100.00
69302;BME280;56689;47.842;8.974;2024-01-30T02:08:31;98075.50;;;-1.76;100.00
69302;BME280;56689;47.842;8.974;2024-01-30T02:10:57;98041.09;;;-1.93;100.00
69302;BME280;56689;47.842;8.974;2024-01-30T02:13:23;98043.31;;;-1.97;100.00
69302;BME280;56689;47.842;8.974;2024-01-30T02:15:49;98041.25;;;-1.91;100.00
69302;BME280;56689;47.842;8.974;2024-01-30T02:18:15;98068.38;;;-1.80;100.00
69302;BME280;56689;47.842;8.974;2024-01-30T02:20:41;98052.78;;;-1.84;100.00
69302;BME280;56689;47.842;8.974;2024-01-30T02:23:07;98053.41;;;-1.87;100.00
69302;BME280;56689;47.842;8.974;2024-01-30T02:25:38;98074.72;;;-1.75;100.00
69302;BME280;56689;47.842;8.974;2024-01-30T02:28:04;98021.94;;;-1.99;100.00
69302;BME280;56689;47.842;8.974;2024-01-30T02:30:29;98031.13;;;-2.01;100.00
69302;BME280;56689;47.842;8.974;2024-01-30T02:32:55;98058.28;;;-1.90;100.00
69302;BME280;56689;47.842;8.974;2024-01-30T02:35:20;98074.63;;;-1.76;100.00
69302;BME280;56689;47.842;8.974;2024-01-30T02:37:46;98033.78;;;-2.00;100.00
69302;BME280;56689;47.842;8.974;2024-01-30T02:40:11;98073.16;;;-1.73;100.00
69302;BME280;56689;47.842;8.974;2024-01-30T02:42:36;98034.66;;;-1.99;100.00
69302;BME280;56689;47.842;8.974;2024-01-30T02:45:02;98052.84;;;-1.95;100.00
69302;BME280;56689;47.842;8.974;2024-01-30T02:47:27;98024.63;;;-2.19;100.00
69302;BME280;56689;47.842;8.974;2024-01-30T02:49:53;98046.00;;;-2.17;100.00
69302;BME280;56689;47.842;8.974;2024-01-30T02:52:18;97996.94;;;-2.49;100.00
69302;BME280;56689;47.842;8.974;2024-01-30T02:54:44;98024.69;;;-2.30;100.00
69302;BME280;56689;47.842;8.974;2024-01-30T02:57:09;98022.63;;;-2.24;100.00
69302;BME280;56689;47.842;8.974;2024-01-30T02:59:35;98031.78;;;-2.26;100.00
69302;BME280;56689;47.842;8.974;2024-01-30T03:02:01;98045.00;;;-2.19;100.00
69302;BME280;56689;47.842;8.974;2024-01-30T03:04:26;98034.63;;;-2.33;100.00
69302;BME280;56689;47.842;8.974;2024-01-30T03:06:54;98043.47;;;-2.28;100.00
69302;BME280;56689;47.842;8.974;2024-01-30T03:09:20;98038.97;;;-2.20;100.00
69302;BME280;56689;47.842;8.974;2024-01-30T03:11:45;98062.22;;;-2.05;100.00
69302;BME280;56689;47.842;8.974;2024-01-30T03:14:11;98022.72;;;-2.22;100.00
69302;BME280;56689;47.842;8.974;2024-01-30T03:16:37;98015.38;;;-2.29;100.00
69302;BME280;56689;47.842;8.974;2024-01-30T03:19:03;98031.72;;;-2.15;100.00
69302;BME280;56689;47.842;8.974;2024-01-30T03:21:29;98049.41;;;-2.17;100.00
69302;BME280;56689;47.842;8.974;2024-01-30T03:23:54;98026.44;;;-2.29;100.00
69302;BME280;56689;47.842;8.974;2024-01-30T03:26:19;98020.84;;;-2.25;100.00
69302;BME280;56689;47.842;8.974;2024-01-30T03:28:45;98019.72;;;-2.28;100.00
69302;BME280;56689;47.842;8.974;2024-01-30T03:31:13;98029.28;;;-2.14;100.00
69302;BME280;56689;47.842;8.974;2024-01-30T03:33:39;98031.97;;;-2.12;100.00
69302;BME280;56689;47.842;8.974;2024-01-30T03:36:05;98050.84;;;-1.99;100.00
69302;BME280;56689;47.842;8.974;2024-01-30T03:38:30;98039.94;;;-2.08;100.00
69302;BME280;56689;47.842;8.974;2024-01-30T03:40:58;98020.53;;;-2.17;100.00
69302;BME280;56689;47.842;8.974;2024-01-30T03:43:23;98017.00;;;-2.19;100.00
69302;BME280;56689;47.842;8.974;2024-01-30T03:45:49;98019.09;;;-2.14;100.00
69302;BME280;56689;47.842;8.974;2024-01-30T03:48:14;98027.34;;;-2.28;100.00
69302;BME280;56689;47.842;8.974;2024-01-30T03:50:39;98000.66;;;-2.55;100.00
69302;BME280;56689;47.842;8.974;2024-01-30T03:53:05;98005.72;;;-2.55;100.00
69302;BME280;56689;47.842;8.974;2024-01-30T03:55:30;98016.34;;;-2.61;100.00
69302;BME280;56689;47.842;8.974;2024-01-30T03:57:58;98031.13;;;-2.45;100.00
69302;BME280;56689;47.842;8.974;2024-01-30T04:00:23;98040.00;;;-2.40;100.00
69302;BME280;56689;47.842;8.974;2024-01-30T04:02:49;97993.31;;;-2.62;100.00
69302;BME280;56689;47.842;8.974;2024-01-30T04:05:16;98045.13;;;-2.28;100.00
69302;BME280;56689;47.842;8.974;2024-01-30T04:07:41;98035.16;;;-2.37;100.00
69302;BME280;56689;47.842;8.974;2024-01-30T04:10:07;98048.06;;;-2.24;100.00
69302;BME280;56689;47.842;8.974;2024-01-30T04:12:33;97987.59;;;-2.60;100.00
69302;BME280;56689;47.842;8.974;2024-01-30T04:14:58;98019.81;;;-2.49;100.00
69302;BME280;56689;47.842;8.974;2024-01-30T04:17:24;98020.84;;;-2.46;100.00
69302;BME280;56689;47.842;8.974;2024-01-30T04:19:49;98033.38;;;-2.38;100.00
69302;BME280;56689;47.842;8.974;2024-01-30T04:22:15;98019.28;;;-2.44;100.00
69302;BME280;56689;47.842;8.974;2024-01-30T04:24:40;98031.44;;;-2.30;100.00
69302;BME280;56689;47.842;8.974;2024-01-30T04:27:06;98043.66;;;-2.36;100.00
69302;BME280;56689;47.842;8.974;2024-01-30T04:29:33;98009.81;;;-2.57;100.00
69302;BME280;56689;47.842;8.974;2024-01-30T04:31:59;97983.44;;;-2.69;100.00
69302;BME280;56689;47.842;8.974;2024-01-30T04:34:24;98051.66;;;-2.32;100.00
69302;BME280;56689;47.842;8.974;2024-01-30T04:36:50;98004.44;;;-2.72;100.00
69302;BME280;56689;47.842;8.974;2024-01-30T04:39:15;98031.69;;;-2.59;100.00
69302;BME280;56689;47.842;8.974;2024-01-30T04:41:41;98035.25;;;-2.57;100.00
69302;BME280;56689;47.842;8.974;2024-01-30T04:44:06;98017.22;;;-2.60;100.00
69302;BME280;56689;47.842;8.974;2024-01-30T04:46:32;98023.47;;;-2.67;100.00
69302;BME280;56689;47.842;8.974;2024-01-30T04:48:59;98002.56;;;-2.85;100.00
69302;BME280;56689;47.842;8.974;2024-01-30T04:51:25;97991.19;;;-3.00;100.00
69302;BME280;56689;47.842;8.974;2024-01-30T04:53:50;98010.63;;;-3.00;100.00
69302;BME280;56689;47.842;8.974;2024-01-30T04:56:16;98049.78;;;-2.77;100.00
69302;BME280;56689;47.842;8.974;2024-01-30T04:58:41;98035.09;;;-2.81;100.00
69302;BME280;56689;47.842;8.974;2024-01-30T05:01:06;98064.47;;;-2.52;100.00
69302;BME280;56689;47.842;8.974;2024-01-30T05:03:35;98026.16;;;-2.76;100.00
69302;BME280;56689;47.842;8.974;2024-01-30T05:06:01;98065.47;;;-2.50;100.00
69302;BME280;56689;47.842;8.974;2024-01-30T05:08:26;98002.72;;;-2.93;100.00
69302;BME280;56689;47.842;8.974;2024-01-30T05:10:51;98025.75;;;-2.70;100.00
69302;BME280;56689;47.842;8.974;2024-01-30T05:13:17;98049.44;;;-2.49;100.00
69302;BME280;56689;47.842;8.974;2024-01-30T05:15:42;98069.88;;;-2.37;100.00
69302;BME280;56689;47.842;8.974;2024-01-30T05:18:08;98040.44;;;-2.56;100.00
69302;BME280;56689;47.842;8.974;2024-01-30T05:20:33;98000.22;;;-2.71;100.00
69302;BME280;56689;47.842;8.974;2024-01-30T05:22:59;98006.69;;;-2.75;100.00
69302;BME280;56689;47.842;8.974;2024-01-30T05:25:24;98049.38;;;-2.61;100.00
69302;BME280;56689;47.842;8.974;2024-01-30T05:27:49;98037.19;;;-2.65;100.00
69302;BME280;56689;47.842;8.974;2024-01-30T05:30:15;98065.97;;;-2.54;100.00
69302;BME280;56689;47.842;8.974;2024-01-30T05:32:41;98081.31;;;-2.42;100.00
69302;BME280;56689;47.842;8.974;2024-01-30T05:35:06;98013.44;;;-2.76;100.00
69302;BME280;56689;47.842;8.974;2024-01-30T05:37:33;98013.44;;;-2.76;100.00
69302;BME280;56689;47.842;8.974;2024-01-30T05:39:58;98012.97;;;-2.82;100.00
69302;BME280;56689;47.842;8.974;2024-01-30T05:42:24;98049.84;;;-2.55;100.00
69302;BME280;56689;47.842;8.974;2024-01-30T05:44:50;98077.88;;;-2.33;100.00
69302;BME280;56689;47.842;8.974;2024-01-30T05:47:15;98043.38;;;-2.61;100.00
69302;BME280;56689;47.842;8.974;2024-01-30T05:49:41;98018.19;;;-2.80;100.00
69302;BME280;56689;47.842;8.974;2024-01-30T05:52:07;98086.19;;;-2.45;100.00
69302;BME280;56689;47.842;8.974;2024-01-30T05:54:32;98054.97;;;-2.65;100.00
69302;BME280;56689;47.842;8.974;2024-01-30T05:56:58;98012.06;;;-2.82;100.00
69302;BME280;56689;47.842;8.974;2024-01-30T05:59:23;98040.03;;;-2.82;100.00
69302;BME280;56689;47.842;8.974;2024-01-30T06:01:49;98044.22;;;-2.83;100.00
69302;BME280;56689;47.842;8.974;2024-01-30T06:04:14;98087.56;;;-2.49;100.00
69302;BME280;56689;47.842;8.974;2024-01-30T06:06:40;98043.94;;;-2.76;100.00
69302;BME280;56689;47.842;8.974;2024-01-30T06:09:05;98053.34;;;-2.75;100.00
69302;BME280;56689;47.842;8.974;2024-01-30T06:11:31;98075.69;;;-2.60;100.00
69302;BME280;56689;47.842;8.974;2024-01-30T06:13:56;98048.78;;;-2.79;100.00
69302;BME280;56689;47.842;8.974;2024-01-30T06:16:22;98074.44;;;-2.65;100.00
69302;BME280;56689;47.842;8.974;2024-01-30T06:18:48;98092.16;;;-2.55;100.00
69302;BME280;56689;47.842;8.974;2024-01-30T06:21:13;98073.06;;;-2.72;100.00
69302;BME280;56689;47.842;8.974;2024-01-30T06:23:39;98044.38;;;-2.91;100.00
69302;BME280;56689;47.842;8.974;2024-01-30T06:26:06;98048.34;;;-2.95;100.00
69302;BME280;56689;47.842;8.974;2024-01-30T06:28:31;98046.19;;;-3.00;100.00
69302;BME280;56689;47.842;8.974;2024-01-30T06:30:57;98078.28;;;-2.81;100.00
69302;BME280;56689;47.842;8.974;2024-01-30T06:33:22;98051.50;;;-2.97;100.00
69302;BME280;56689;47.842;8.974;2024-01-30T06:35:48;98065.88;;;-2.98;100.00
69302;BME280;56689;47.842;8.974;2024-01-30T06:38:13;98046.97;;;-3.01;100.00
69302;BME280;56689;47.842;8.974;2024-01-30T06:40:41;98060.91;;;-2.96;100.00
69302;BME280;56689;47.842;8.974;2024-01-30T06:43:06;98081.38;;;-2.95;100.00
69302;BME280;56689;47.842;8.974;2024-01-30T06:45:33;98090.13;;;-2.91;100.00
69302;BME280;56689;47.842;8.974;2024-01-30T06:47:59;98051.94;;;-3.13;100.00
69302;BME280;56689;47.842;8.974;2024-01-30T06:50:25;98043.94;;;-3.18;100.00
69302;BME280;56689;47.842;8.974;2024-01-30T06:52:50;98023.75;;;-3.37;100.00
69302;BME280;56689;47.842;8.974;2024-01-30T06:55:16;98055.47;;;-3.11;100.00
69302;BME280;56689;47.842;8.974;2024-01-30T06:57:41;98103.94;;;-2.78;100.00
69302;BME280;56689;47.842;8.974;2024-01-30T07:00:07;98081.09;;;-2.88;100.00
69302;BME280;56689;47.842;8.974;2024-01-30T07:02:33;98070.78;;;-2.89;100.00
69302;BME280;56689;47.842;8.974;2024-01-30T07:04:58;98087.31;;;-2.74;100.00
69302;BME280;56689;47.842;8.974;2024-01-30T07:07:23;98042.34;;;-2.95;100.00
69302;BME280;56689;47.842;8.974;2024-01-30T07:09:49;98089.47;;;-2.79;100.00
69302;BME280;56689;47.842;8.974;2024-01-30T07:12:17;98083.22;;;-2.72;100.00
69302;BME280;56689;47.842;8.974;2024-01-30T07:14:43;98079.25;;;-2.68;100.00
69302;BME280;56689;47.842;8.974;2024-01-30T07:17:08;98101.84;;;-2.51;100.00
69302;BME280;56689;47.842;8.974;2024-01-30T07:19:34;98114.25;;;-2.44;100.00
69302;BME280;56689;47.842;8.974;2024-01-30T07:22:00;98067.56;;;-2.66;100.00
69302;BME280;56689;47.842;8.974;2024-01-30T07:24:26;98088.34;;;-2.50;100.00
69302;BME280;56689;47.842;8.974;2024-01-30T07:26:52;98076.78;;;-2.46;100.00
69302;BME280;56689;47.842;8.974;2024-01-30T07:29:17;98086.00;;;-2.37;100.00
69302;BME280;56689;47.842;8.974;2024-01-30T07:31:43;98105.59;;;-2.36;100.00
69302;BME280;56689;47.842;8.974;2024-01-30T07:34:09;98058.69;;;-2.71;100.00
69302;BME280;56689;47.842;8.974;2024-01-30T07:36:34;98088.13;;;-2.53;100.00
69302;BME280;56689;47.842;8.974;2024-01-30T07:38:59;98110.56;;;-2.37;100.00
69302;BME280;56689;47.842;8.974;2024-01-30T07:41:25;98077.56;;;-2.58;100.00
69302;BME280;56689;47.842;8.974;2024-01-30T07:43:50;98082.97;;;-2.43;100.00
69302;BME280;56689;47.842;8.974;2024-01-30T07:46:16;98075.19;;;-2.34;100.00
69302;BME280;56689;47.842;8.974;2024-01-30T07:48:42;98084.56;;;-2.23;100.00
69302;BME280;56689;47.842;8.974;2024-01-30T07:51:07;98103.31;;;-2.11;100.00
69302;BME280;56689;47.842;8.974;2024-01-30T07:53:33;98119.56;;;-1.99;100.00
69302;BME280;56689;47.842;8.974;2024-01-30T07:55:58;98109.91;;;-2.13;100.00
69302;BME280;56689;47.842;8.974;2024-01-30T07:58:23;98093.44;;;-2.18;100.00
69302;BME280;56689;47.842;8.974;2024-01-30T08:00:49;98092.56;;;-2.18;100.00
69302;BME280;56689;47.842;8.974;2024-01-30T08:03:16;98134.22;;;-1.84;100.00
69302;BME280;56689;47.842;8.974;2024-01-30T08:05:43;98107.16;;;-1.94;100.00
69302;BME280;56689;47.842;8.974;2024-01-30T08:08:08;98138.00;;;-1.79;100.00
69302;BME280;56689;47.842;8.974;2024-01-30T08:10:34;98139.25;;;-1.74;100.00
69302;BME280;56689;47.842;8.974;2024-01-30T08:12:59;98105.97;;;-1.87;100.00
69302;BME280;56689;47.842;8.974;2024-01-30T08:15:25;98098.59;;;-1.84;100.00
69302;BME280;56689;47.842;8.974;2024-01-30T08:17:50;98082.28;;;-1.86;100.00
69302;BME280;56689;47.842;8.974;2024-01-30T08:20:20;98120.94;;;-1.58;100.00
69302;BME280;56689;47.842;8.974;2024-01-30T08:22:46;98112.78;;;-1.54;100.00
69302;BME280;56689;47.842;8.974;2024-01-30T08:25:19;98126.44;;;-1.42;100.00
69302;BME280;56689;47.842;8.974;2024-01-30T08:27:46;98070.97;;;-1.68;100.00
69302;BME280;56689;47.842;8.974;2024-01-30T08:30:12;98144.22;;;-1.20;100.00
69302;BME280;56689;47.842;8.974;2024-01-30T08:32:38;98110.19;;;-1.32;100.00
69302;BME280;56689;47.842;8.974;2024-01-30T08:35:04;98126.50;;;-1.19;100.00
69302;BME280;56689;47.842;8.974;2024-01-30T08:37:30;98144.91;;;-1.11;100.00
69302;BME280;56689;47.842;8.974;2024-01-30T08:39:55;98144.16;;;-0.98;100.00
69302;BME280;56689;47.842;8.974;2024-01-30T08:42:20;98145.84;;;-0.99;100.00
69302;BME280;56689;47.842;8.974;2024-01-30T08:44:48;98103.56;;;-1.30;100.00
69302;BME280;56689;47.842;8.974;2024-01-30T08:47:14;98137.66;;;-0.95;100.00
69302;BME280;56689;47.842;8.974;2024-01-30T08:49:41;98138.78;;;-0.79;100.00
69302;BME280;56689;47.842;8.974;2024-01-30T08:52:08;98128.22;;;-0.84;100.00
69302;BME280;56689;47.842;8.974;2024-01-30T08:54:33;98129.81;;;-0.74;100.00
69302;BME280;56689;47.842;8.974;2024-01-30T08:57:00;98145.44;;;-0.58;100.00
69302;BME280;56689;47.842;8.974;2024-01-30T08:59:25;98115.63;;;-0.59;100.00
69302;BME280;56689;47.842;8.974;2024-01-30T09:01:51;98117.94;;;-0.62;100.00
69302;BME280;56689;47.842;8.974;2024-01-30T09:04:19;98138.81;;;-0.44;100.00
69302;BME280;56689;47.842;8.974;2024-01-30T09:06:45;98122.25;;;-0.49;100.00
69302;BME280;56689;47.842;8.974;2024-01-30T09:09:10;98147.22;;;-0.22;100.00
69302;BME280;56689;47.842;8.974;2024-01-30T09:11:36;98137.88;;;-0.21;100.00
69302;BME280;56689;47.842;8.974;2024-01-30T09:14:01;98150.53;;;-0.23;100.00
69302;BME280;56689;47.842;8.974;2024-01-30T09:16:27;98127.56;;;-0.35;100.00
69302;BME280;56689;47.842;8.974;2024-01-30T09:18:52;98120.84;;;-0.46;100.00
69302;BME280;56689;47.842;8.974;2024-01-30T09:21:17;98148.09;;;-0.21;100.00
69302;BME280;56689;47.842;8.974;2024-01-30T09:23:43;98127.25;;;-0.28;100.00
69302;BME280;56689;47.842;8.974;2024-01-30T09:26:08;98105.59;;;-0.21;100.00
69302;BME280;56689;47.842;8.974;2024-01-30T09:28:34;98108.94;;;-0.10;100.00
69302;BME280;56689;47.842;8.974;2024-01-30T09:31:00;98088.16;;;-0.15;100.00
69302;BME280;56689;47.842;8.974;2024-01-30T09:33:25;98112.25;;;0.01;100.00
69302;BME280;56689;47.842;8.974;2024-01-30T09:35:50;98116.41;;;0.12;100.00
69302;BME280;56689;47.842;8.974;2024-01-30T09:38:16;98115.41;;;0.21;100.00
69302;BME280;56689;47.842;8.974;2024-01-30T09:40:41;98134.97;;;0.46;100.00
69302;BME280;56689;47.842;8.974;2024-01-30T09:43:11;98143.59;;;0.60;100.00
69302;BME280;56689;47.842;8.974;2024-01-30T09:45:44;98159.50;;;0.80;100.00
69302;BME280;56689;47.842;8.974;2024-01-30T09:48:11;98147.81;;;0.84;100.00
69302;BME280;56689;47.842;8.974;2024-01-30T09:50:36;98134.66;;;0.91;100.00
69302;BME280;56689;47.842;8.974;2024-01-30T09:53:03;98095.25;;;0.63;100.00
69302;BME280;56689;47.842;8.974;2024-01-30T09:55:29;98124.13;;;0.87;100.00
69302;BME280;56689;47.842;8.974;2024-01-30T09:57:55;98139.91;;;1.06;100.00
69302;BME280;56689;47.842;8.974;2024-01-30T10:00:20;98152.03;;;1.22;100.00
69302;BME280;56689;47.842;8.974;2024-01-30T10:02:48;98140.94;;;1.34;100.00
69302;BME280;56689;47.842;8.974;2024-01-30T10:05:15;98092.78;;;1.02;100.00
69302;BME280;56689;47.842;8.974;2024-01-30T10:07:53;98125.91;;;1.39;100.00
69302;BME280;56689;47.842;8.974;2024-01-30T10:10:19;98140.38;;;1.52;100.00
69302;BME280;56689;47.842;8.974;2024-01-30T10:12:46;98113.31;;;1.42;100.00
69302;BME280;56689;47.842;8.974;2024-01-30T10:15:13;98093.50;;;1.26;100.00
69302;BME280;56689;47.842;8.974;2024-01-30T10:17:39;98111.94;;;1.47;100.00
69302;BME280;56689;47.842;8.974;2024-01-30T10:20:05;98079.75;;;1.38;100.00
69302;BME280;56689;47.842;8.974;2024-01-30T10:22:31;98080.25;;;1.32;100.00
69302;BME280;56689;47.842;8.974;2024-01-30T10:24:56;98142.56;;;1.72;100.00
69302;BME280;56689;47.842;8.974;2024-01-30T10:27:28;98118.72;;;1.60;100.00
69302;BME280;56689;47.842;8.974;2024-01-30T10:29:55;98153.88;;;1.76;100.00
69302;BME280;56689;47.842;8.974;2024-01-30T10:32:20;98104.34;;;1.49;100.00
69302;BME280;56689;47.842;8.974;2024-01-30T10:34:46;98119.31;;;1.69;100.00
69302;BME280;56689;47.842;8.974;2024-01-30T10:37:11;98143.13;;;1.95;100.00
69302;BME280;56689;47.842;8.974;2024-01-30T10:39:44;98088.59;;;1.69;100.00
69302;BME280;56689;47.842;8.974;2024-01-30T10:42:15;98142.66;;;2.00;100.00
69302;BME280;56689;47.842;8.974;2024-01-30T10:47:28;98141.16;;;1.90;100.00
69302;BME280;56689;47.842;8.974;2024-01-30T10:49:54;98146.88;;;1.86;100.00
69302;BME280;56689;47.842;8.974;2024-01-30T10:52:20;98118.59;;;1.85;100.00
69302;BME280;56689;47.842;8.974;2024-01-30T10:54:46;98092.13;;;1.84;100.00
69302;BME280;56689;47.842;8.974;2024-01-30T10:57:13;98106.16;;;2.04;100.00
69302;BME280;56689;47.842;8.974;2024-01-30T10:59:41;98115.59;;;2.18;100.00
69302;BME280;56689;47.842;8.974;2024-01-30T11:02:08;98118.22;;;2.33;100.00
69302;BME280;56689;47.842;8.974;2024-01-30T11:04:38;98092.53;;;2.18;100.00
69302;BME280;56689;47.842;8.974;2024-01-30T11:07:15;98103.38;;;2.28;100.00
69302;BME280;56689;47.842;8.974;2024-01-30T11:09:48;98075.69;;;2.22;100.00
69302;BME280;56689;47.842;8.974;2024-01-30T11:12:14;98066.41;;;2.24;100.00
69302;BME280;56689;47.842;8.974;2024-01-30T11:14:39;98077.47;;;2.23;100.00
69302;BME280;56689;47.842;8.974;2024-01-30T11:17:05;98087.97;;;2.41;100.00
69302;BME280;56689;47.842;8.974;2024-01-30T11:19:31;98078.03;;;2.47;100.00
69302;BME280;56689;47.842;8.974;2024-01-30T11:21:57;98113.59;;;2.84;100.00
69302;BME280;56689;47.842;8.974;2024-01-30T11:24:23;98093.69;;;2.80;100.00
69302;BME280;56689;47.842;8.974;2024-01-30T11:26:54;98088.31;;;2.75;100.00
69302;BME280;56689;47.842;8.974;2024-01-30T11:29:24;98087.97;;;2.84;100.00
69302;BME280;56689;47.842;8.974;2024-01-30T11:31:57;98093.47;;;3.05;100.00
69302;BME280;56689;47.842;8.974;2024-01-30T11:34:22;98064.59;;;3.09;100.00
69302;BME280;56689;47.842;8.974;2024-01-30T11:36:52;98070.97;;;3.15;100.00
69302;BME280;56689;47.842;8.974;2024-01-30T11:39:24;98045.44;;;3.02;100.00
69302;BME280;56689;47.842;8.974;2024-01-30T11:41:53;98030.00;;;2.87;100.00
69302;BME280;56689;47.842;8.974;2024-01-30T11:44:20;98046.38;;;3.19;100.00
69302;BME280;56689;47.842;8.974;2024-01-30T11:46:48;98072.38;;;3.40;100.00
69302;BME280;56689;47.842;8.974;2024-01-30T11:49:13;98053.81;;;3.44;100.00
69302;BME280;56689;47.842;8.974;2024-01-30T11:51:39;98020.72;;;3.19;100.00
69302;BME280;56689;47.842;8.974;2024-01-30T11:54:04;98011.97;;;3.15;100.00
69302;BME280;56689;47.842;8.974;2024-01-30T11:56:30;98064.84;;;3.43;100.00
69302;BME280;56689;47.842;8.974;2024-01-30T11:58:55;98069.44;;;3.48;100.00
69302;BME280;56689;47.842;8.974;2024-01-30T12:01:21;98050.50;;;3.46;100.00
69302;BME280;56689;47.842;8.974;2024-01-30T12:03:50;98074.75;;;3.66;100.00
69302;BME280;56689;47.842;8.974;2024-01-30T12:06:16;98002.28;;;3.41;100.00
69302;BME280;56689;47.842;8.974;2024-01-30T12:08:41;98026.06;;;3.53;100.00
69302;BME280;56689;47.842;8.974;2024-01-30T12:11:07;98029.47;;;3.68;100.00
69302;BME280;56689;47.842;8.974;2024-01-30T12:13:33;98047.41;;;3.83;100.00
69302;BME280;56689;47.842;8.974;2024-01-30T12:15:59;98033.94;;;3.87;100.00
69302;BME280;56689;47.842;8.974;2024-01-30T12:18:24;98052.06;;;4.05;100.00
69302;BME280;56689;47.842;8.974;2024-01-30T12:20:59;98054.16;;;4.12;100.00
69302;BME280;56689;47.842;8.974;2024-01-30T12:23:27;98041.69;;;4.20;100.00
69302;BME280;56689;47.842;8.974;2024-01-30T12:25:52;98025.69;;;4.09;100.00
69302;BME280;56689;47.842;8.974;2024-01-30T12:28:20;98018.16;;;4.12;100.00
69302;BME280;56689;47.842;8.974;2024-01-30T12:30:45;98051.09;;;4.35;100.00
69302;BME280;56689;47.842;8.974;2024-01-30T12:33:16;98014.72;;;4.28;100.00
69302;BME280;56689;47.842;8.974;2024-01-30T12:35:46;98024.56;;;4.36;100.00
69302;BME280;56689;47.842;8.974;2024-01-30T12:38:12;98036.31;;;4.48;100.00
69302;BME280;56689;47.842;8.974;2024-01-30T12:40:37;98030.94;;;4.43;100.00
69302;BME280;56689;47.842;8.974;2024-01-30T12:43:03;98025.63;;;4.56;100.00
69302;BME280;56689;47.842;8.974;2024-01-30T12:45:29;98029.94;;;4.57;100.00
69302;BME280;56689;47.842;8.974;2024-01-30T12:47:55;97983.69;;;4.25;100.00
69302;BME280;56689;47.842;8.974;2024-01-30T12:50:20;97982.09;;;4.27;100.00